Time;durP1;ratioP1;P1;durP2;ratioP2;P2;SDS_P1;SDS_P2;PMS_P1;PMS_P2;Temp;Humidity;BMP_temperature;BMP_pressure;BME280_temperature;BME280_humidity;BME280_pressure;Samples;Min_cycle;Max_cycle;Signal;HPM_P1;HPM_P2
2022/03/04 00:00:52;;;;;;;95.53;41.45;;;;;;;2.73;68.23;100360.31;5104907;28;20039;-69
2022/03/04 00:03:17;;;;;;;93.13;42.42;;;;;;;2.66;68.07;100355.00;5095906;28;20118;-68
2022/03/04 00:05:43;;;;;;;88.60;40.88;;;;;;;2.65;68.41;100360.38;5099590;28;20055;-69
2022/03/04 00:08:09;;;;;;;97.78;41.35;;;;;;;2.62;68.82;100364.13;5089082;28;20035;-69
2022/03/04 00:10:35;;;;;;;98.00;41.42;;;;;;;2.60;68.00;100352.28;5081240;28;20115;-69
2022/03/04 00:13:01;;;;;;;99.90;44.25;;;;;;;2.54;68.96;100354.59;5075431;28;20093;-69
2022/03/04 00:15:26;;;;;;;96.95;42.75;;;;;;;2.65;68.51;100374.19;5102670;28;20444;-69
2022/03/04 00:17:52;;;;;;;104.70;44.30;;;;;;;2.46;68.18;100344.25;5105323;28;20039;-69
2022/03/04 00:20:17;;;;;;;98.75;41.83;;;;;;;2.66;68.40;100364.59;5096297;28;20067;-69
2022/03/04 00:22:44;;;;;;;101.57;43.92;;;;;;;2.68;67.79;100368.66;5079251;28;20046;-69
2022/03/04 00:25:10;;;;;;;93.05;41.58;;;;;;;2.69;68.35;100370.25;5091628;28;21733;-69
2022/03/04 00:27:35;;;;;;;99.35;42.47;;;;;;;2.64;68.50;100361.38;5091905;28;20032;-69
2022/03/04 00:30:01;;;;;;;90.90;42.30;;;;;;;2.62;67.63;100348.53;5092395;28;20031;-69
2022/03/04 00:32:27;;;;;;;92.18;40.78;;;;;;;2.56;67.57;100341.41;5100957;28;20059;-69
2022/03/04 00:34:53;;;;;;;92.43;40.30;;;;;;;2.59;68.03;100354.09;5103116;28;20096;-69
2022/03/04 00:37:18;;;;;;;92.30;41.85;;;;;;;2.59;68.20;100351.50;5078604;28;20043;-69
2022/03/04 00:39:44;;;;;;;94.30;41.35;;;;;;;2.61;68.56;100359.94;5095907;28;20028;-69
2022/03/04 00:42:09;;;;;;;95.43;41.00;;;;;;;2.34;69.94;100338.63;5103272;28;20469;-68
2022/03/04 00:44:35;;;;;;;93.93;41.13;;;;;;;2.33;69.35;100331.84;5097542;28;20019;-69
2022/03/04 00:47:00;;;;;;;91.68;41.67;;;;;;;2.20;69.38;100313.41;5082252;28;20040;-69
2022/03/04 00:49:26;;;;;;;90.03;40.35;;;;;;;2.37;69.77;100334.91;5093011;28;20032;-69
2022/03/04 00:51:51;;;;;;;92.60;40.08;;;;;;;2.40;70.55;100352.75;5100277;28;20119;-69
2022/03/04 00:54:17;;;;;;;80.95;37.90;;;;;;;2.39;69.72;100345.13;5096101;28;20503;-68
2022/03/04 00:56:42;;;;;;;85.00;36.95;;;;;;;2.33;69.36;100342.22;5078802;28;20439;-70
2022/03/04 00:59:08;;;;;;;90.45;39.03;;;;;;;2.29;69.71;100340.16;5101057;28;20040;-71
2022/03/04 01:01:33;;;;;;;81.65;37.20;;;;;;;2.25;70.23;100344.91;5085827;28;20489;-71
2022/03/04 01:03:58;;;;;;;90.47;38.80;;;;;;;2.23;70.72;100333.06;5074123;28;20039;-71
2022/03/04 01:06:24;;;;;;;85.28;39.72;;;;;;;2.18;71.52;100338.75;5090630;28;20032;-70
2022/03/04 01:08:49;;;;;;;85.88;39.45;;;;;;;2.10;71.56;100329.22;5095687;28;20043;-71
2022/03/04 01:11:15;;;;;;;90.38;37.65;;;;;;;2.09;71.86;100340.59;5093777;28;20452;-70
2022/03/04 01:13:40;;;;;;;81.47;37.40;;;;;;;2.09;71.84;100334.59;5096231;28;20058;-72
2022/03/04 01:16:06;;;;;;;90.13;39.25;;;;;;;2.03;72.03;100327.47;5101904;28;20044;-72
2022/03/04 01:18:31;;;;;;;76.18;34.72;;;;;;;2.01;71.80;100332.03;5076967;28;20042;-71
2022/03/04 01:20:57;;;;;;;76.47;34.47;;;;;;;1.90;71.38;100313.25;5103103;28;20032;-71
2022/03/04 01:23:22;;;;;;;80.07;36.63;;;;;;;1.95;71.81;100325.72;5078929;28;20043;-72
2022/03/04 01:25:52;;;;;;;76.53;35.05;;;;;;;1.89;71.26;100309.06;5099263;28;20034;-72
2022/03/04 01:28:19;;;;;;;71.93;34.35;;;;;;;1.89;71.28;100303.03;5098359;28;20043;-73
2022/03/04 01:30:44;;;;;;;76.72;34.80;;;;;;;1.67;71.50;100265.66;5096899;28;20107;-73
2022/03/04 01:33:10;;;;;;;80.72;35.65;;;;;;;2.01;71.09;100316.44;5095748;28;20127;-73
2022/03/04 01:35:36;;;;;;;75.45;34.85;;;;;;;1.97;70.97;100310.00;5098915;28;20043;-73
2022/03/04 01:38:02;;;;;;;75.90;34.13;;;;;;;2.05;71.00;100309.94;5105234;28;20036;-73
2022/03/04 01:40:27;;;;;;;71.72;33.55;;;;;;;2.04;70.97;100310.94;5094794;28;20043;-71
2022/03/04 01:42:53;;;;;;;79.47;34.22;;;;;;;2.07;70.82;100310.56;5101298;28;20028;-70
2022/03/04 01:45:19;;;;;;;73.10;33.95;;;;;;;2.07;70.97;100306.19;5106348;28;20481;-71
2022/03/04 01:47:44;;;;;;;79.93;36.15;;;;;;;2.10;71.42;100312.81;5109207;28;20040;-72
2022/03/04 01:50:10;;;;;;;78.63;35.67;;;;;;;2.09;70.95;100304.22;5102747;28;20035;-72
2022/03/04 01:52:36;;;;;;;77.57;33.97;;;;;;;2.10;70.95;100310.22;5088191;28;20043;-72
2022/03/04 01:55:02;;;;;;;72.60;33.70;;;;;;;2.14;71.25;100308.91;5104558;28;20031;-72
2022/03/04 01:57:27;;;;;;;79.15;35.30;;;;;;;2.00;70.71;100284.47;5101184;28;20032;-72
2022/03/04 01:59:53;;;;;;;77.47;35.75;;;;;;;2.13;70.58;100302.06;5084638;28;20490;-72
2022/03/04 02:02:18;;;;;;;76.82;34.75;;;;;;;2.00;70.85;100279.28;5096508;28;20036;-68
2022/03/04 02:04:44;;;;;;;78.22;35.50;;;;;;;2.12;71.29;100296.09;5091318;28;20408;-68
2022/03/04 02:07:09;;;;;;;78.80;36.05;;;;;;;2.06;70.77;100286.41;5098883;28;20039;-69
2022/03/04 02:09:35;;;;;;;76.07;35.22;;;;;;;2.14;71.46;100295.91;5099304;28;20024;-71
2022/03/04 02:12:00;;;;;;;76.40;35.50;;;;;;;1.95;70.83;100257.41;5094455;28;20534;-72
2022/03/04 02:14:26;;;;;;;82.22;37.42;;;;;;;2.20;70.76;100292.63;5095307;28;20043;-71
2022/03/04 02:16:53;;;;;;;79.28;36.55;;;;;;;2.22;71.19;100292.47;5094958;28;20062;-72
2022/03/04 02:19:20;;;;;;;85.72;38.08;;;;;;;2.22;70.99;100292.47;5084965;28;20031;-72
2022/03/04 02:21:53;;;;;;;87.97;38.05;;;;;;;2.16;72.30;100301.75;5105596;28;20047;-72
2022/03/04 02:24:22;;;;;;;78.65;36.47;;;;;;;2.06;72.29;100298.56;5104827;28;20043;-73
2022/03/04 02:26:49;;;;;;;78.63;35.08;;;;;;;2.02;72.14;100290.31;5097015;28;20440;-72
2022/03/04 02:29:14;;;;;;;84.07;33.78;;;;;;;2.00;72.40;100302.66;5106523;28;20095;-70
2022/03/04 02:31:40;;;;;;;78.60;33.85;;;;;;;1.68;73.05;100269.91;5085250;28;20081;-70
2022/03/04 02:34:06;;;;;;;68.57;32.55;;;;;;;1.80;73.53;100301.47;5097699;28;20309;-72
2022/03/04 02:36:32;;;;;;;64.43;29.13;;;;;;;1.71;73.03;100298.09;5100142;28;20062;-72
2022/03/04 02:38:57;;;;;;;62.13;29.75;;;;;;;1.68;73.37;100295.84;5094782;28;20128;-69
2022/03/04 02:41:23;;;;;;;66.53;29.25;;;;;;;1.58;73.87;100290.88;5100014;28;20031;-72
2022/03/04 02:43:48;;;;;;;59.90;27.02;;;;;;;1.51;73.77;100287.31;5097393;28;20032;-72
2022/03/04 02:46:14;;;;;;;58.13;27.98;;;;;;;1.55;73.40;100293.78;5108734;28;20024;-72
2022/03/04 02:48:40;;;;;;;55.25;26.15;;;;;;;1.57;73.39;100298.81;5107518;28;20085;-71
2022/03/04 02:51:06;;;;;;;57.60;27.70;;;;;;;1.56;73.30;100298.00;5112561;28;20032;-70
2022/03/04 02:53:32;;;;;;;56.55;26.58;;;;;;;1.51;73.42;100291.69;5108526;28;20047;-72
2022/03/04 02:55:57;;;;;;;57.83;27.05;;;;;;;1.60;74.17;100311.44;5111628;28;20032;-70
2022/03/04 02:58:23;;;;;;;56.90;27.92;;;;;;;1.59;74.22;100310.63;5105196;28;20373;-72
2022/03/04 03:00:48;;;;;;;56.13;26.13;;;;;;;1.59;73.91;100305.44;5097957;28;20031;-72
2022/03/04 03:03:14;;;;;;;59.72;28.55;;;;;;;1.56;73.62;100307.59;5093414;28;20047;-72
2022/03/04 03:05:39;;;;;;;60.92;27.63;;;;;;;1.49;74.03;100300.47;5095988;28;20072;-71
2022/03/04 03:08:05;;;;;;;63.33;27.65;;;;;;;1.60;74.35;100317.44;5102305;28;20096;-71
2022/03/04 03:10:32;;;;;;;54.63;25.73;;;;;;;1.42;76.00;100312.47;5092981;28;20164;-72
2022/03/04 03:12:58;;;;;;;50.42;24.60;;;;;;;1.27;77.01;100320.16;5101295;28;20036;-72
2022/03/04 03:15:24;;;;;;;51.45;25.45;;;;;;;1.32;76.48;100319.66;5093272;28;20137;-72
2022/03/04 03:17:49;;;;;;;48.13;24.45;;;;;;;1.28;76.47;100323.53;5092969;28;20138;-72
2022/03/04 03:20:16;;;;;;;44.97;22.70;;;;;;;1.30;76.30;100328.59;5079586;28;20109;-72
2022/03/04 03:22:41;;;;;;;49.67;23.23;;;;;;;1.26;76.17;100328.91;5098364;28;20038;-69
2022/03/04 03:25:07;;;;;;;52.83;24.10;;;;;;;1.17;75.90;100321.28;5102061;28;20032;-69
2022/03/04 03:27:34;;;;;;;52.72;23.85;;;;;;;1.18;75.83;100330.72;5099315;28;20142;-69
2022/03/04 03:29:59;;;;;;;47.72;23.85;;;;;;;1.11;76.05;100320.19;5085115;28;20453;-69
2022/03/04 03:32:25;;;;;;;56.75;25.27;;;;;;;1.05;75.94;100315.63;5091194;28;20034;-69
2022/03/04 03:34:50;;;;;;;92.65;30.40;;;;;;;1.07;76.55;100329.25;5074519;28;20122;-69
2022/03/04 03:37:15;;;;;;;118.70;36.40;;;;;;;1.06;76.43;100322.47;5096260;28;20044;-69
2022/03/04 03:39:41;;;;;;;150.65;42.05;;;;;;;0.96;75.96;100308.84;5080845;28;20077;-70
2022/03/04 03:42:07;;;;;;;183.82;47.28;;;;;;;1.00;76.09;100310.94;5101875;28;20032;-69
2022/03/04 03:44:33;;;;;;;200.05;52.35;;;;;;;1.05;76.33;100321.66;5097000;28;20032;-68
2022/03/04 03:46:58;;;;;;;617.33;129.27;;;;;;;1.00;76.33;100307.56;5096335;28;20181;-68
2022/03/04 03:49:24;;;;;;;570.03;119.10;;;;;;;0.97;76.44;100305.28;5099023;28;20119;-69
2022/03/04 03:51:49;;;;;;;494.35;103.97;;;;;;;1.10;76.54;100325.53;5096308;28;20038;-70
2022/03/04 03:54:15;;;;;;;381.73;78.05;;;;;;;1.10;76.21;100317.75;5095948;28;20044;-70
2022/03/04 03:56:41;;;;;;;306.88;65.75;;;;;;;1.01;76.04;100309.19;5094907;28;20028;-69
2022/03/04 03:59:06;;;;;;;379.35;81.07;;;;;;;1.11;75.79;100320.19;5079911;28;20109;-69
2022/03/04 04:01:32;;;;;;;519.47;120.30;;;;;;;1.13;75.94;100327.81;5072136;28;20085;-69
2022/03/04 04:03:58;;;;;;;593.65;145.57;;;;;;;1.10;75.40;100328.13;5073995;28;20044;-69
2022/03/04 04:06:23;;;;;;;555.20;138.90;;;;;;;1.04;75.90;100306.25;5074028;28;20094;-70
2022/03/04 04:08:49;;;;;;;186.45;52.45;;;;;;;1.07;76.77;100318.88;5070251;28;20387;-68
2022/03/04 04:11:14;;;;;;;90.65;36.05;;;;;;;1.10;76.77;100328.13;5076683;28;20044;-68
2022/03/04 04:13:40;;;;;;;69.38;29.88;;;;;;;1.06;77.40;100327.66;5085009;28;20044;-68
2022/03/04 04:16:05;;;;;;;65.50;29.85;;;;;;;1.07;77.04;100324.06;5079155;28;20036;-70
2022/03/04 04:18:31;;;;;;;63.08;27.45;;;;;;;1.04;77.28;100324.41;5074681;28;20044;-70
2022/03/04 04:20:56;;;;;;;64.28;28.33;;;;;;;1.03;77.81;100325.38;5080259;28;20039;-69
2022/03/04 04:23:22;;;;;;;66.88;30.27;;;;;;;1.02;77.25;100323.75;5072408;28;20861;-70
2022/03/04 04:25:47;;;;;;;63.92;28.80;;;;;;;1.09;77.29;100344.66;5076666;28;20661;-69
2022/03/04 04:28:12;;;;;;;58.63;28.15;;;;;;;1.09;77.34;100337.69;5074296;28;20474;-70
2022/03/04 04:30:38;;;;;;;60.65;29.27;;;;;;;1.10;77.34;100346.28;5084978;28;20039;-70
2022/03/04 04:33:03;;;;;;;62.78;28.38;;;;;;;1.05;77.39;100339.81;5079976;28;20701;-70
2022/03/04 04:35:29;;;;;;;59.03;28.15;;;;;;;1.03;77.84;100343.50;5071947;28;20081;-70
2022/03/04 04:37:54;;;;;;;59.22;27.63;;;;;;;1.06;77.24;100343.22;5073407;28;20039;-70
2022/03/04 04:40:20;;;;;;;59.28;27.70;;;;;;;0.92;77.93;100328.31;5079727;28;20047;-70
2022/03/04 04:42:46;;;;;;;63.92;29.33;;;;;;;1.03;77.66;100339.16;5075038;28;20043;-70
2022/03/04 04:45:11;;;;;;;57.45;27.95;;;;;;;1.02;77.34;100341.91;5072276;28;20036;-70
2022/03/04 04:47:37;;;;;;;63.00;29.52;;;;;;;1.04;77.23;100334.78;5078423;28;20028;-71
2022/03/04 04:50:03;;;;;;;64.50;28.90;;;;;;;1.03;77.92;100333.97;5074640;28;20486;-71
2022/03/04 04:52:29;;;;;;;58.95;28.67;;;;;;;1.05;77.32;100336.38;5071663;28;20036;-70
2022/03/04 04:54:54;;;;;;;63.50;29.95;;;;;;;1.11;77.26;100340.13;5074605;28;20535;-70
2022/03/04 04:57:20;;;;;;;65.65;28.67;;;;;;;0.82;77.53;100294.78;5077962;28;20044;-70
2022/03/04 04:59:46;;;;;;;54.55;27.67;;;;;;;1.10;77.63;100339.28;5098355;28;20056;-70
2022/03/04 05:02:12;;;;;;;70.45;28.60;;;;;;;1.10;77.61;100341.09;5097811;28;20085;-69
2022/03/04 05:04:37;;;;;;;59.35;28.50;;;;;;;0.91;77.34;100327.50;5093207;28;20028;-69
2022/03/04 05:07:03;;;;;;;60.97;29.02;;;;;;;1.00;77.95;100342.06;5096267;28;20044;-70
2022/03/04 05:09:29;;;;;;;57.35;27.98;;;;;;;1.10;77.64;100348.88;5093973;28;20111;-69
2022/03/04 05:11:54;;;;;;;58.83;28.50;;;;;;;1.11;77.13;100351.31;5095058;28;20062;-69
2022/03/04 05:14:20;;;;;;;61.08;27.77;;;;;;;1.05;77.22;100349.34;5075735;28;20035;-69
2022/03/04 05:16:46;;;;;;;60.22;27.77;;;;;;;1.12;77.27;100342.53;5100277;28;20301;-69
2022/03/04 05:19:12;;;;;;;64.97;28.15;;;;;;;1.08;77.02;100343.03;5098454;28;20073;-71
2022/03/04 05:21:37;;;;;;;74.72;32.33;;;;;;;1.17;77.13;100366.19;5081022;28;20181;-71
2022/03/04 05:24:04;;;;;;;68.65;31.50;;;;;;;1.11;77.09;100355.69;5103791;28;20047;-71
2022/03/04 05:26:35;;;;;;;72.88;34.47;;;;;;;1.22;77.07;100363.09;5077711;28;20089;-72
2022/03/04 05:29:02;;;;;;;73.43;35.83;;;;;;;1.16;77.25;100369.78;5097686;28;20028;-72
2022/03/04 05:31:28;;;;;;;65.55;31.38;;;;;;;1.11;77.29;100379.03;5083866;28;20039;-72
2022/03/04 05:33:54;;;;;;;62.13;30.98;;;;;;;1.16;77.56;100381.94;5096572;28;20393;-72
2022/03/04 05:36:20;;;;;;;69.70;30.20;;;;;;;1.08;77.68;100377.56;5093781;28;20031;-71
2022/03/04 05:38:47;;;;;;;58.17;28.05;;;;;;;1.03;77.48;100385.00;5089462;28;20048;-71
2022/03/04 05:41:13;;;;;;;66.25;29.30;;;;;;;1.01;77.72;100385.19;5100326;28;20050;-72
2022/03/04 05:43:39;;;;;;;65.32;28.67;;;;;;;1.00;77.92;100388.72;5075883;28;20039;-72
2022/03/04 05:46:05;;;;;;;63.85;29.65;;;;;;;0.94;77.91;100392.00;5089390;28;20031;-74
2022/03/04 05:48:31;;;;;;;66.97;30.25;;;;;;;0.83;77.80;100371.56;5100535;28;20038;-72
2022/03/04 05:50:56;;;;;;;65.40;28.65;;;;;;;0.88;78.27;100390.03;5103936;28;20123;-72
2022/03/04 05:53:22;;;;;;;65.88;29.60;;;;;;;0.81;78.96;100379.53;5104749;28;20032;-71
2022/03/04 05:55:48;;;;;;;65.82;30.10;;;;;;;0.73;78.78;100373.50;5094398;28;20032;-71
2022/03/04 05:58:13;;;;;;;64.25;29.73;;;;;;;0.80;78.37;100393.44;5090787;28;20509;-70
2022/03/04 06:00:39;;;;;;;61.92;28.30;;;;;;;0.76;78.92;100378.38;5096096;28;20123;-73
2022/03/04 06:03:04;;;;;;;70.35;29.92;;;;;;;0.83;78.96;100394.91;5102293;28;20450;-72
2022/03/04 06:05:30;;;;;;;70.70;30.75;;;;;;;0.83;78.42;100395.69;5098402;28;20104;-73
2022/03/04 06:07:55;;;;;;;61.72;29.80;;;;;;;0.62;79.68;100391.00;5114404;28;20050;-73
2022/03/04 06:10:20;;;;;;;63.92;28.70;;;;;;;0.79;78.88;100396.19;5090643;28;20450;-72
2022/03/04 06:12:46;;;;;;;64.03;28.35;;;;;;;0.84;78.71;100406.91;5104602;28;20057;-73
2022/03/04 06:15:11;;;;;;;61.50;27.00;;;;;;;0.88;78.85;100407.38;5105506;28;20550;-72
2022/03/04 06:17:37;;;;;;;61.03;27.67;;;;;;;0.82;78.84;100399.28;5108962;28;20053;-72
2022/03/04 06:20:04;;;;;;;60.25;27.50;;;;;;;0.89;78.44;100411.56;5101673;28;20061;-73
2022/03/04 06:22:29;;;;;;;73.25;31.80;;;;;;;0.93;78.55;100413.69;5097658;28;20367;-71
2022/03/04 06:24:55;;;;;;;73.65;31.27;;;;;;;1.10;78.52;100424.06;5107255;28;20031;-71
2022/03/04 06:27:20;;;;;;;67.05;29.05;;;;;;;1.05;78.96;100419.34;5093230;28;20032;-73
2022/03/04 06:29:46;;;;;;;67.43;28.58;;;;;;;0.95;79.85;100413.53;5096449;28;20024;-72
2022/03/04 06:32:13;;;;;;;66.88;27.77;;;;;;;0.99;79.65;100425.22;5086032;28;20378;-69
2022/03/04 06:34:39;;;;;;;68.35;29.38;;;;;;;0.99;79.32;100430.41;5095614;28;20032;-70
2022/03/04 06:37:04;;;;;;;66.88;28.17;;;;;;;0.87;79.49;100411.75;5078406;28;20393;-69
2022/03/04 06:39:30;;;;;;;65.35;29.95;;;;;;;0.97;79.78;100433.13;5103818;28;20036;-72
2022/03/04 06:41:55;;;;;;;64.78;29.60;;;;;;;1.01;79.11;100434.44;5099057;28;20130;-72
2022/03/04 06:44:21;;;;;;;67.75;30.83;;;;;;;1.08;79.31;100444.16;5079879;28;20062;-73
2022/03/04 06:46:46;;;;;;;67.05;30.85;;;;;;;1.08;79.41;100436.38;5100704;28;20054;-73
2022/03/04 06:49:12;;;;;;;66.90;29.92;;;;;;;1.10;79.26;100437.84;5098112;28;20027;-72
2022/03/04 06:51:38;;;;;;;67.50;31.52;;;;;;;1.11;79.42;100438.66;5096726;28;20536;-72
2022/03/04 06:54:04;;;;;;;66.32;31.63;;;;;;;1.12;79.38;100437.69;5097835;28;20813;-70
2022/03/04 06:56:30;;;;;;;69.68;32.25;;;;;;;1.14;79.67;100454.69;5078317;28;20032;-70
2022/03/04 06:58:55;;;;;;;69.25;30.85;;;;;;;1.10;79.14;100445.63;5084059;28;20044;-70
2022/03/04 07:01:21;;;;;;;65.13;30.50;;;;;;;1.19;79.40;100454.22;5101078;28;20034;-69
2022/03/04 07:03:47;;;;;;;70.25;31.65;;;;;;;1.22;79.10;100464.25;5104665;28;20043;-71
2022/03/04 07:06:12;;;;;;;65.60;30.65;;;;;;;1.04;79.63;100434.13;5093054;28;20150;-70
2022/03/04 07:08:38;;;;;;;57.10;28.75;;;;;;;1.21;79.53;100471.25;5091607;28;20065;-72
2022/03/04 07:11:04;;;;;;;63.17;29.33;;;;;;;1.17;79.73;100459.56;5101277;28;20028;-73
2022/03/04 07:13:30;;;;;;;61.97;27.95;;;;;;;1.22;79.72;100467.69;5107056;28;20453;-72
2022/03/04 07:15:55;;;;;;;58.72;28.05;;;;;;;1.22;79.60;100465.09;5095663;28;20032;-72
2022/03/04 07:18:23;;;;;;;58.20;26.55;;;;;;;1.35;79.50;100474.16;5099166;28;20493;-71
2022/03/04 07:20:49;;;;;;;59.97;25.63;;;;;;;1.36;79.40;100470.59;5102308;28;20115;-71
2022/03/04 07:23:15;;;;;;;53.30;26.33;;;;;;;1.38;79.43;100466.06;5106365;28;20665;-72
2022/03/04 07:25:41;;;;;;;55.42;25.55;;;;;;;1.32;79.04;100456.31;5078221;28;20043;-71
2022/03/04 07:28:07;;;;;;;56.45;27.02;;;;;;;1.46;78.76;100477.25;5095318;28;20027;-73
2022/03/04 07:30:32;;;;;;;54.33;26.33;;;;;;;1.45;78.60;100469.63;5102043;28;20039;-72
2022/03/04 07:32:58;;;;;;;51.88;25.58;;;;;;;1.64;78.47;100490.03;5098298;28;20028;-73
2022/03/04 07:35:24;;;;;;;53.17;24.45;;;;;;;1.65;78.53;100485.66;5088407;28;20058;-72
2022/03/04 07:37:49;;;;;;;48.72;24.00;;;;;;;1.66;76.83;100480.28;5090419;28;21422;-73
2022/03/04 07:40:16;;;;;;;51.13;23.63;;;;;;;1.79;75.98;100484.97;5106023;28;20450;-73
2022/03/04 07:42:42;;;;;;;46.28;23.17;;;;;;;1.80;76.00;100476.22;5080009;28;20078;-72
2022/03/04 07:45:10;;;;;;;60.83;25.80;;;;;;;2.01;76.53;100491.28;5092990;28;20042;-73
2022/03/04 07:47:37;;;;;;;53.22;24.40;;;;;;;2.11;76.03;100485.88;5098906;28;20429;-73
2022/03/04 07:50:04;;;;;;;49.58;23.67;;;;;;;2.25;76.07;100492.16;5106258;28;20039;-71
2022/03/04 07:52:31;;;;;;;43.67;21.10;;;;;;;2.30;75.18;100490.69;5093842;28;20074;-72
2022/03/04 07:55:01;;;;;;;42.88;19.85;;;;;;;2.44;73.79;100486.56;5100227;28;20071;-73
2022/03/04 07:57:27;;;;;;;43.13;19.50;;;;;;;2.55;72.53;100485.38;5094421;28;20054;-71
2022/03/04 07:59:52;;;;;;;49.00;22.33;;;;;;;2.74;72.83;100487.53;5101980;28;20036;-72
2022/03/04 08:02:18;;;;;;;44.92;20.63;;;;;;;2.36;72.04;100419.03;5087939;28;20101;-71
2022/03/04 08:04:43;;;;;;;45.05;20.27;;;;;;;2.95;71.78;100501.75;5101113;28;20040;-72
2022/03/04 08:07:09;;;;;;;44.08;20.70;;;;;;;3.03;71.75;100493.06;5100721;28;20499;-72
2022/03/04 08:09:34;;;;;;;40.85;19.30;;;;;;;3.12;70.83;100498.03;5104744;28;20031;-72
2022/03/04 08:12:00;;;;;;;43.95;19.83;;;;;;;3.07;70.27;100489.94;5095960;28;20031;-72
2022/03/04 08:14:25;;;;;;;43.28;20.15;;;;;;;3.13;70.90;100486.63;5101931;28;20470;-72
2022/03/04 08:16:51;;;;;;;39.78;20.33;;;;;;;3.29;70.41;100498.72;5108001;28;20028;-70
2022/03/04 08:19:16;;;;;;;39.20;20.15;;;;;;;3.31;71.02;100498.56;5100620;28;20092;-71
2022/03/04 08:21:43;;;;;;;39.30;18.90;;;;;;;3.34;71.41;100488.59;5082924;28;20035;-71
2022/03/04 08:24:09;;;;;;;43.83;20.52;;;;;;;3.46;72.41;100512.41;5090508;28;20042;-71
2022/03/04 08:26:38;;;;;;;38.30;19.38;;;;;;;3.23;72.83;100464.78;5101234;28;20023;-72
2022/03/04 08:29:05;;;;;;;40.20;19.90;;;;;;;3.40;73.56;100502.72;5095678;28;20072;-72
2022/03/04 08:31:30;;;;;;;40.47;18.75;;;;;;;3.45;73.41;100502.16;5094968;28;20032;-72
2022/03/04 08:33:55;;;;;;;41.28;19.60;;;;;;;3.53;74.20;100515.94;5091571;28;20035;-71
2022/03/04 08:36:21;;;;;;;40.40;19.02;;;;;;;3.39;73.68;100486.28;5090953;28;20127;-73
2022/03/04 08:38:47;;;;;;;42.10;19.98;;;;;;;3.48;74.25;100507.84;5097046;28;20126;-73
2022/03/04 08:41:13;;;;;;;40.47;19.90;;;;;;;3.48;74.76;100515.66;5105781;28;20035;-72
2022/03/04 08:43:39;;;;;;;42.28;19.73;;;;;;;3.48;74.59;100510.47;5091700;28;20032;-72
2022/03/04 08:46:05;;;;;;;42.45;19.45;;;;;;;3.48;74.61;100507.06;5078836;28;20038;-71
2022/03/04 08:48:30;;;;;;;43.05;20.60;;;;;;;3.52;75.43;100519.53;5091700;28;20044;-72
2022/03/04 08:50:56;;;;;;;38.55;19.42;;;;;;;3.54;75.52;100522.75;5100429;28;20797;-72
2022/03/04 08:53:21;;;;;;;39.00;18.52;;;;;;;3.55;76.37;100527.00;5075180;28;20119;-73
2022/03/04 08:55:47;;;;;;;45.78;19.20;;;;;;;3.48;75.88;100505.25;5095721;28;20394;-72
2022/03/04 08:58:12;;;;;;;37.85;18.10;;;;;;;3.55;75.69;100519.19;5093634;28;20044;-73
2022/03/04 09:00:38;;;;;;;40.47;18.50;;;;;;;3.51;75.82;100506.69;5086260;28;20027;-70
2022/03/04 09:03:04;;;;;;;39.63;19.00;;;;;;;3.48;75.65;100522.66;5072718;28;20436;-70
2022/03/04 09:05:31;;;;;;;38.55;19.25;;;;;;;3.36;76.27;100523.06;5094458;28;20036;-74
2022/03/04 09:07:56;;;;;;;39.47;19.02;;;;;;;3.46;77.52;100530.66;5097450;28;20047;-72
2022/03/04 09:10:22;;;;;;;37.33;19.10;;;;;;;3.37;77.72;100518.66;5093802;28;20032;-72
2022/03/04 09:12:49;;;;;;;44.75;19.77;;;;;;;3.49;77.86;100535.50;5076226;28;20059;-70
2022/03/04 09:15:14;;;;;;;37.08;19.75;;;;;;;3.31;77.98;100514.19;5081392;28;20032;-71
2022/03/04 09:17:40;;;;;;;36.75;18.90;;;;;;;3.39;77.80;100534.94;5104046;28;20223;-71
2022/03/04 09:20:06;;;;;;;40.03;17.50;;;;;;;3.29;78.65;100518.75;5099716;28;20086;-72
2022/03/04 09:22:32;;;;;;;36.15;17.80;;;;;;;3.35;78.48;100546.66;5099104;28;20055;-72
2022/03/04 09:24:57;;;;;;;40.00;17.63;;;;;;;3.27;78.89;100555.34;5083910;28;20381;-72
2022/03/04 09:27:23;;;;;;;39.53;18.30;;;;;;;3.31;78.93;100551.41;5089248;28;20058;-71
2022/03/04 09:29:48;;;;;;;39.47;18.60;;;;;;;3.18;80.00;100536.38;5090990;28;20028;-71
2022/03/04 09:32:14;;;;;;;35.17;16.27;;;;;;;3.25;78.99;100554.69;5091169;28;20036;-71
2022/03/04 09:34:39;;;;;;;35.80;17.73;;;;;;;3.19;79.15;100555.41;5097580;28;20065;-71
2022/03/04 09:37:05;;;;;;;31.08;15.98;;;;;;;3.14;79.43;100563.72;5100216;28;20034;-71
2022/03/04 09:39:30;;;;;;;37.10;18.02;;;;;;;3.11;79.17;100555.44;5102811;28;20488;-72
2022/03/04 09:41:58;;;;;;;33.60;17.17;;;;;;;3.12;79.19;100563.09;5088368;28;20086;-72
2022/03/04 09:44:23;;;;;;;35.28;17.40;;;;;;;3.13;80.30;100559.50;5102204;28;20385;-72
2022/03/04 09:46:49;;;;;;;34.58;16.98;;;;;;;3.06;80.38;100540.34;5093852;28;20031;-71
2022/03/04 09:49:16;;;;;;;32.55;16.13;;;;;;;2.82;80.76;100511.88;5081952;28;20036;-72
2022/03/04 09:51:42;;;;;;;34.67;16.92;;;;;;;3.08;80.56;100546.19;5105802;28;20051;-71
2022/03/04 09:54:07;;;;;;;36.13;17.83;;;;;;;3.08;81.17;100551.41;5104248;28;20802;-72
2022/03/04 09:56:33;;;;;;;35.42;16.85;;;;;;;2.99;81.76;100539.41;5104630;28;20073;-70
2022/03/04 09:58:59;;;;;;;35.60;17.08;;;;;;;3.00;81.81;100535.03;5107605;28;20051;-71
2022/03/04 10:01:25;;;;;;;35.20;17.67;;;;;;;3.03;81.51;100540.69;5114436;28;20049;-71
2022/03/04 10:03:52;;;;;;;41.65;18.40;;;;;;;3.05;82.09;100535.34;5103178;28;20036;-72
2022/03/04 10:06:19;;;;;;;40.88;19.48;;;;;;;3.20;82.59;100550.00;5102366;28;20046;-72
2022/03/04 10:08:45;;;;;;;38.92;18.92;;;;;;;3.26;83.46;100550.34;5110804;28;20081;-72
2022/03/04 10:11:12;;;;;;;35.42;17.10;;;;;;;3.22;82.30;100530.84;5087027;28;20038;-72
2022/03/04 10:13:40;;;;;;;36.58;17.02;;;;;;;3.34;82.83;100545.06;5097673;28;20055;-72
2022/03/04 10:16:06;;;;;;;41.67;19.30;;;;;;;3.32;83.29;100539.22;5093432;28;20071;-71
2022/03/04 10:18:31;;;;;;;34.97;19.00;;;;;;;3.26;83.10;100519.09;5097139;28;20058;-72
2022/03/04 10:20:57;;;;;;;35.03;17.15;;;;;;;3.49;82.15;100545.91;5099932;28;20045;-75
2022/03/04 10:23:25;;;;;;;34.83;17.25;;;;;;;3.27;81.43;100502.50;5077807;28;20043;-73
2022/03/04 10:25:53;;;;;;;34.95;17.58;;;;;;;3.54;81.42;100540.19;5087695;28;20032;-74
2022/03/04 10:28:23;;;;;;;35.33;17.88;;;;;;;3.26;81.16;100483.47;5076513;28;20929;-75
2022/03/04 10:30:50;;;;;;;32.35;17.58;;;;;;;3.60;80.75;100529.88;5092738;28;20081;-72
2022/03/04 10:33:21;;;;;;;35.17;17.88;;;;;;;3.63;80.87;100531.31;5097433;28;20482;-74
2022/03/04 10:35:50;;;;;;;39.20;17.95;;;;;;;3.85;80.41;100534.84;5101323;28;20440;-75
2022/03/04 10:38:25;;;;;;;35.67;16.67;;;;;;;3.85;79.70;100511.41;5108135;28;20389;-73
2022/03/04 10:40:51;;;;;;;33.75;17.80;;;;;;;4.03;79.51;100526.72;5100291;28;20043;-70
2022/03/04 10:43:23;;;;;;;37.30;18.83;;;;;;;4.07;79.74;100519.34;5092329;28;20046;-71
2022/03/04 10:45:59;;;;;;;37.33;19.00;;;;;;;4.18;79.80;100514.50;5093546;28;20028;-70
2022/03/04 10:48:25;;;;;;;43.90;20.83;;;;;;;4.31;79.26;100520.88;5093730;28;20036;-71
2022/03/04 10:50:52;;;;;;;36.88;19.48;;;;;;;4.45;79.43;100525.25;5080409;28;20119;-71
2022/03/04 10:53:21;;;;;;;46.55;21.63;;;;;;;4.56;79.51;100521.41;5076993;28;20039;-71
2022/03/04 10:55:59;;;;;;;43.35;21.23;;;;;;;4.54;79.58;100492.09;5081937;28;20027;-71
2022/03/04 10:58:29;;;;;;;31.55;15.35;;;;;;;4.56;73.88;100500.53;5106071;28;20429;-70
2022/03/04 11:00:56;;;;;;;29.08;13.90;;;;;;;4.65;72.23;100520.31;5098939;28;20036;-71
2022/03/04 11:03:27;;;;;;;29.40;15.20;;;;;;;4.70;73.84;100520.56;5100856;28;20048;-72
2022/03/04 11:05:55;;;;;;;33.33;16.55;;;;;;;4.81;74.73;100512.28;5102981;28;20477;-72
2022/03/04 11:08:21;;;;;;;33.65;17.58;;;;;;;4.96;75.10;100509.63;5109282;28;20389;-72
2022/03/04 11:10:48;;;;;;;34.72;17.90;;;;;;;5.07;75.00;100510.91;5103311;28;20534;-72